sensor_id;sensor_type;location;lat;lon;timestamp;P1;durP1;ratioP1;P2;durP2;ratioP2
19635;SDS011;9965;50.774;7.188;2022-07-10T00:01:25;5.00;;;1.60;;
19635;SDS011;9965;50.774;7.188;2022-07-10T00:03:51;3.23;;;1.50;;
19635;SDS011;9965;50.774;7.188;2022-07-10T00:06:19;7.60;;;1.50;;
19635;SDS011;9965;50.774;7.188;2022-07-10T00:08:45;4.37;;;1.70;;
19635;SDS011;9965;50.774;7.188;2022-07-10T00:11:11;4.90;;;1.43;;
19635;SDS011;9965;50.774;7.188;2022-07-10T00:13:37;6.97;;;1.63;;
19635;SDS011;9965;50.774;7.188;2022-07-10T00:16:05;2.97;;;1.60;;
19635;SDS011;9965;50.774;7.188;2022-07-10T00:18:31;2.50;;;1.47;;
19635;SDS011;9965;50.774;7.188;2022-07-10T00:20:57;5.87;;;1.70;;
19635;SDS011;9965;50.774;7.188;2022-07-10T00:23:22;4.03;;;1.30;;
19635;SDS011;9965;50.774;7.188;2022-07-10T00:25:48;4.93;;;1.40;;
19635;SDS011;9965;50.774;7.188;2022-07-10T00:28:14;3.67;;;1.50;;
19635;SDS011;9965;50.774;7.188;2022-07-10T00:30:39;3.47;;;1.40;;
19635;SDS011;9965;50.774;7.188;2022-07-10T00:33:05;4.37;;;1.60;;
19635;SDS011;9965;50.774;7.188;2022-07-10T00:35:31;7.57;;;1.80;;
19635;SDS011;9965;50.774;7.188;2022-07-10T00:37:56;6.87;;;1.63;;
19635;SDS011;9965;50.774;7.188;2022-07-10T00:40:22;5.20;;;1.53;;
19635;SDS011;9965;50.774;7.188;2022-07-10T00:42:48;4.83;;;1.63;;
19635;SDS011;9965;50.774;7.188;2022-07-10T00:45:13;5.13;;;2.00;;
19635;SDS011;9965;50.774;7.188;2022-07-10T00:47:39;6.43;;;2.03;;
19635;SDS011;9965;50.774;7.188;2022-07-10T00:50:05;6.40;;;2.47;;
19635;SDS011;9965;50.774;7.188;2022-07-10T00:52:32;4.97;;;1.80;;
19635;SDS011;9965;50.774;7.188;2022-07-10T00:55:03;3.33;;;1.30;;
19635;SDS011;9965;50.774;7.188;2022-07-10T00:57:33;6.63;;;1.43;;
19635;SDS011;9965;50.774;7.188;2022-07-10T01:00:00;5.77;;;1.63;;
19635;SDS011;9965;50.774;7.188;2022-07-10T01:02:26;5.03;;;1.60;;
19635;SDS011;9965;50.774;7.188;2022-07-10T01:04:52;2.57;;;1.30;;
19635;SDS011;9965;50.774;7.188;2022-07-10T01:07:17;5.63;;;2.13;;
19635;SDS011;9965;50.774;7.188;2022-07-10T01:09:43;4.10;;;1.97;;
19635;SDS011;9965;50.774;7.188;2022-07-10T01:12:09;6.17;;;1.83;;
19635;SDS011;9965;50.774;7.188;2022-07-10T01:14:37;4.03;;;1.53;;
19635;SDS011;9965;50.774;7.188;2022-07-10T01:17:05;4.43;;;1.77;;
19635;SDS011;9965;50.774;7.188;2022-07-10T01:19:32;8.90;;;2.10;;
19635;SDS011;9965;50.774;7.188;2022-07-10T01:21:58;7.67;;;2.00;;
19635;SDS011;9965;50.774;7.188;2022-07-10T01:24:24;3.53;;;1.80;;
19635;SDS011;9965;50.774;7.188;2022-07-10T01:26:49;3.00;;;1.67;;
19635;SDS011;9965;50.774;7.188;2022-07-10T01:29:15;4.10;;;1.80;;
19635;SDS011;9965;50.774;7.188;2022-07-10T01:31:41;4.43;;;1.63;;
19635;SDS011;9965;50.774;7.188;2022-07-10T01:34:07;4.87;;;1.70;;
19635;SDS011;9965;50.774;7.188;2022-07-10T01:36:34;5.80;;;1.70;;
19635;SDS011;9965;50.774;7.188;2022-07-10T01:39:00;4.13;;;1.53;;
19635;SDS011;9965;50.774;7.188;2022-07-10T01:41:26;6.40;;;1.70;;
19635;SDS011;9965;50.774;7.188;2022-07-10T01:43:52;4.27;;;1.47;;
19635;SDS011;9965;50.774;7.188;2022-07-10T01:46:18;3.67;;;1.30;;
19635;SDS011;9965;50.774;7.188;2022-07-10T01:48:45;3.43;;;1.50;;
19635;SDS011;9965;50.774;7.188;2022-07-10T01:51:11;5.40;;;1.50;;
19635;SDS011;9965;50.774;7.188;2022-07-10T01:53:37;5.07;;;1.30;;
19635;SDS011;9965;50.774;7.188;2022-07-10T01:56:04;4.87;;;1.40;;
19635;SDS011;9965;50.774;7.188;2022-07-10T01:58:32;4.37;;;1.67;;
19635;SDS011;9965;50.774;7.188;2022-07-10T02:00:57;4.93;;;1.67;;
19635;SDS011;9965;50.774;7.188;2022-07-10T02:03:23;4.67;;;1.33;;
19635;SDS011;9965;50.774;7.188;2022-07-10T02:06:08;2.73;;;1.53;;
19635;SDS011;9965;50.774;7.188;2022-07-10T02:08:33;6.53;;;1.80;;
19635;SDS011;9965;50.774;7.188;2022-07-10T02:10:59;6.67;;;1.37;;
19635;SDS011;9965;50.774;7.188;2022-07-10T02:13:25;6.83;;;1.63;;
19635;SDS011;9965;50.774;7.188;2022-07-10T02:15:53;13.07;;;1.70;;
19635;SDS011;9965;50.774;7.188;2022-07-10T02:18:19;5.53;;;1.70;;
19635;SDS011;9965;50.774;7.188;2022-07-10T02:20:46;3.53;;;1.93;;
19635;SDS011;9965;50.774;7.188;2022-07-10T02:23:12;7.27;;;1.53;;
19635;SDS011;9965;50.774;7.188;2022-07-10T02:25:38;3.70;;;1.70;;
19635;SDS011;9965;50.774;7.188;2022-07-10T02:28:03;5.00;;;1.80;;
19635;SDS011;9965;50.774;7.188;2022-07-10T02:30:29;5.13;;;1.57;;
19635;SDS011;9965;50.774;7.188;2022-07-10T02:32:55;8.77;;;1.70;;
19635;SDS011;9965;50.774;7.188;2022-07-10T02:35:21;6.27;;;2.03;;
19635;SDS011;9965;50.774;7.188;2022-07-10T02:37:47;4.53;;;1.60;;
19635;SDS011;9965;50.774;7.188;2022-07-10T02:40:12;7.07;;;2.23;;
19635;SDS011;9965;50.774;7.188;2022-07-10T02:42:38;4.77;;;2.50;;
19635;SDS011;9965;50.774;7.188;2022-07-10T02:45:04;6.30;;;1.90;;
19635;SDS011;9965;50.774;7.188;2022-07-10T02:47:29;5.43;;;1.83;;
19635;SDS011;9965;50.774;7.188;2022-07-10T02:49:55;7.37;;;2.00;;
19635;SDS011;9965;50.774;7.188;2022-07-10T02:52:21;7.13;;;1.80;;
19635;SDS011;9965;50.774;7.188;2022-07-10T02:54:46;6.27;;;2.10;;
19635;SDS011;9965;50.774;7.188;2022-07-10T02:57:12;4.10;;;1.90;;
19635;SDS011;9965;50.774;7.188;2022-07-10T02:59:38;6.40;;;2.20;;
19635;SDS011;9965;50.774;7.188;2022-07-10T03:02:04;9.97;;;2.00;;
19635;SDS011;9965;50.774;7.188;2022-07-10T03:04:30;5.43;;;2.00;;
19635;SDS011;9965;50.774;7.188;2022-07-10T03:06:55;5.23;;;2.77;;
19635;SDS011;9965;50.774;7.188;2022-07-10T03:09:21;4.33;;;2.00;;
19635;SDS011;9965;50.774;7.188;2022-07-10T03:11:46;4.63;;;1.93;;
19635;SDS011;9965;50.774;7.188;2022-07-10T03:14:12;3.27;;;1.97;;
19635;SDS011;9965;50.774;7.188;2022-07-10T03:16:38;3.17;;;1.80;;
19635;SDS011;9965;50.774;7.188;2022-07-10T03:19:03;5.83;;;1.97;;
19635;SDS011;9965;50.774;7.188;2022-07-10T03:21:29;9.20;;;2.30;;
19635;SDS011;9965;50.774;7.188;2022-07-10T03:23:56;7.00;;;2.10;;
19635;SDS011;9965;50.774;7.188;2022-07-10T03:26:21;5.93;;;1.93;;
19635;SDS011;9965;50.774;7.188;2022-07-10T03:28:47;7.17;;;2.27;;
19635;SDS011;9965;50.774;7.188;2022-07-10T03:31:13;6.37;;;2.40;;
19635;SDS011;9965;50.774;7.188;2022-07-10T03:33:38;4.87;;;2.30;;
19635;SDS011;9965;50.774;7.188;2022-07-10T03:36:04;6.87;;;3.10;;
19635;SDS011;9965;50.774;7.188;2022-07-10T03:38:31;4.30;;;1.90;;
19635;SDS011;9965;50.774;7.188;2022-07-10T03:40:57;7.13;;;2.07;;
19635;SDS011;9965;50.774;7.188;2022-07-10T03:43:23;9.53;;;2.23;;
19635;SDS011;9965;50.774;7.188;2022-07-10T03:45:49;6.67;;;2.30;;
19635;SDS011;9965;50.774;7.188;2022-07-10T03:48:15;4.43;;;2.13;;
19635;SDS011;9965;50.774;7.188;2022-07-10T03:50:41;7.40;;;2.20;;
19635;SDS011;9965;50.774;7.188;2022-07-10T03:53:07;4.93;;;2.00;;
19635;SDS011;9965;50.774;7.188;2022-07-10T03:55:33;7.83;;;2.47;;
19635;SDS011;9965;50.774;7.188;2022-07-10T03:57:59;6.40;;;2.00;;
19635;SDS011;9965;50.774;7.188;2022-07-10T04:00:28;6.20;;;2.00;;
19635;SDS011;9965;50.774;7.188;2022-07-10T04:02:57;6.37;;;2.20;;
19635;SDS011;9965;50.774;7.188;2022-07-10T04:05:25;6.40;;;2.20;;
19635;SDS011;9965;50.774;7.188;2022-07-10T04:07:52;4.47;;;1.90;;
19635;SDS011;9965;50.774;7.188;2022-07-10T04:10:18;5.63;;;2.20;;
19635;SDS011;9965;50.774;7.188;2022-07-10T04:12:44;8.13;;;2.00;;
19635;SDS011;9965;50.774;7.188;2022-07-10T04:15:10;6.17;;;1.93;;
19635;SDS011;9965;50.774;7.188;2022-07-10T04:17:36;4.57;;;1.83;;
19635;SDS011;9965;50.774;7.188;2022-07-10T04:20:02;6.83;;;1.90;;
19635;SDS011;9965;50.774;7.188;2022-07-10T04:22:28;6.23;;;1.90;;
19635;SDS011;9965;50.774;7.188;2022-07-10T04:24:54;10.80;;;1.87;;
19635;SDS011;9965;50.774;7.188;2022-07-10T04:27:20;4.77;;;1.90;;
19635;SDS011;9965;50.774;7.188;2022-07-10T04:29:46;4.83;;;1.83;;
19635;SDS011;9965;50.774;7.188;2022-07-10T04:32:12;3.83;;;1.60;;
19635;SDS011;9965;50.774;7.188;2022-07-10T04:34:38;6.37;;;1.83;;
19635;SDS011;9965;50.774;7.188;2022-07-10T04:37:04;3.60;;;1.70;;
19635;SDS011;9965;50.774;7.188;2022-07-10T04:39:32;2.90;;;1.80;;
19635;SDS011;9965;50.774;7.188;2022-07-10T04:41:58;5.77;;;2.93;;
19635;SDS011;9965;50.774;7.188;2022-07-10T04:44:24;4.23;;;2.00;;
19635;SDS011;9965;50.774;7.188;2022-07-10T04:46:49;7.40;;;2.40;;
19635;SDS011;9965;50.774;7.188;2022-07-10T04:49:15;3.97;;;1.77;;
19635;SDS011;9965;50.774;7.188;2022-07-10T04:51:40;5.60;;;1.80;;
19635;SDS011;9965;50.774;7.188;2022-07-10T04:54:06;8.33;;;1.87;;
19635;SDS011;9965;50.774;7.188;2022-07-10T04:56:32;4.40;;;1.40;;
19635;SDS011;9965;50.774;7.188;2022-07-10T04:58:57;9.30;;;2.10;;
19635;SDS011;9965;50.774;7.188;2022-07-10T05:01:23;7.97;;;1.77;;
19635;SDS011;9965;50.774;7.188;2022-07-10T05:03:49;9.30;;;3.20;;
19635;SDS011;9965;50.774;7.188;2022-07-10T05:06:14;6.93;;;2.10;;
19635;SDS011;9965;50.774;7.188;2022-07-10T05:08:40;6.27;;;1.90;;
19635;SDS011;9965;50.774;7.188;2022-07-10T05:11:06;9.10;;;1.90;;
19635;SDS011;9965;50.774;7.188;2022-07-10T05:13:31;7.83;;;2.40;;
19635;SDS011;9965;50.774;7.188;2022-07-10T05:15:57;4.37;;;2.00;;
19635;SDS011;9965;50.774;7.188;2022-07-10T05:18:22;6.67;;;1.93;;
19635;SDS011;9965;50.774;7.188;2022-07-10T05:20:48;5.20;;;1.93;;
19635;SDS011;9965;50.774;7.188;2022-07-10T05:23:14;6.43;;;2.13;;
19635;SDS011;9965;50.774;7.188;2022-07-10T05:25:41;11.23;;;2.20;;
19635;SDS011;9965;50.774;7.188;2022-07-10T05:28:07;8.93;;;1.83;;
19635;SDS011;9965;50.774;7.188;2022-07-10T05:30:33;5.73;;;2.00;;
19635;SDS011;9965;50.774;7.188;2022-07-10T05:32:58;4.77;;;1.80;;
19635;SDS011;9965;50.774;7.188;2022-07-10T05:35:25;15.20;;;2.50;;
19635;SDS011;9965;50.774;7.188;2022-07-10T05:37:51;11.30;;;2.13;;
19635;SDS011;9965;50.774;7.188;2022-07-10T05:40:17;6.83;;;2.00;;
19635;SDS011;9965;50.774;7.188;2022-07-10T05:42:43;3.83;;;1.80;;
19635;SDS011;9965;50.774;7.188;2022-07-10T05:45:10;4.77;;;1.63;;
19635;SDS011;9965;50.774;7.188;2022-07-10T05:47:36;5.30;;;1.83;;
19635;SDS011;9965;50.774;7.188;2022-07-10T05:50:02;8.27;;;2.30;;
19635;SDS011;9965;50.774;7.188;2022-07-10T05:52:29;5.30;;;2.10;;
19635;SDS011;9965;50.774;7.188;2022-07-10T05:54:57;8.60;;;2.00;;
19635;SDS011;9965;50.774;7.188;2022-07-10T05:57:23;4.47;;;1.53;;
19635;SDS011;9965;50.774;7.188;2022-07-10T05:59:50;6.63;;;2.40;;
19635;SDS011;9965;50.774;7.188;2022-07-10T06:02:16;5.03;;;1.97;;
19635;SDS011;9965;50.774;7.188;2022-07-10T06:04:41;7.53;;;1.80;;
19635;SDS011;9965;50.774;7.188;2022-07-10T06:07:07;5.67;;;1.97;;
19635;SDS011;9965;50.774;7.188;2022-07-10T06:09:34;8.40;;;2.00;;
19635;SDS011;9965;50.774;7.188;2022-07-10T06:12:00;8.27;;;1.60;;
19635;SDS011;9965;50.774;7.188;2022-07-10T06:14:26;12.53;;;1.97;;
19635;SDS011;9965;50.774;7.188;2022-07-10T06:16:52;4.40;;;1.57;;
19635;SDS011;9965;50.774;7.188;2022-07-10T06:19:17;8.83;;;2.07;;
19635;SDS011;9965;50.774;7.188;2022-07-10T06:21:43;5.50;;;1.47;;
19635;SDS011;9965;50.774;7.188;2022-07-10T06:24:09;8.37;;;1.70;;
19635;SDS011;9965;50.774;7.188;2022-07-10T06:26:35;5.43;;;1.90;;
19635;SDS011;9965;50.774;7.188;2022-07-10T06:29:01;9.73;;;2.20;;
19635;SDS011;9965;50.774;7.188;2022-07-10T06:31:27;5.27;;;1.80;;
19635;SDS011;9965;50.774;7.188;2022-07-10T06:33:54;3.87;;;1.37;;
19635;SDS011;9965;50.774;7.188;2022-07-10T06:36:20;6.03;;;1.90;;
19635;SDS011;9965;50.774;7.188;2022-07-10T06:38:46;5.93;;;2.10;;
19635;SDS011;9965;50.774;7.188;2022-07-10T06:41:12;6.30;;;2.07;;
19635;SDS011;9965;50.774;7.188;2022-07-10T06:43:37;8.13;;;1.90;;
19635;SDS011;9965;50.774;7.188;2022-07-10T06:46:03;8.70;;;1.97;;
19635;SDS011;9965;50.774;7.188;2022-07-10T06:48:29;2.97;;;1.53;;
19635;SDS011;9965;50.774;7.188;2022-07-10T06:50:55;5.07;;;1.90;;
19635;SDS011;9965;50.774;7.188;2022-07-10T06:53:21;4.40;;;1.70;;
19635;SDS011;9965;50.774;7.188;2022-07-10T06:55:52;6.93;;;1.67;;
19635;SDS011;9965;50.774;7.188;2022-07-10T06:58:18;6.23;;;1.77;;
19635;SDS011;9965;50.774;7.188;2022-07-10T07:00:44;5.87;;;2.10;;
19635;SDS011;9965;50.774;7.188;2022-07-10T07:03:10;6.27;;;2.20;;
19635;SDS011;9965;50.774;7.188;2022-07-10T07:05:35;9.30;;;2.30;;
19635;SDS011;9965;50.774;7.188;2022-07-10T07:08:01;8.27;;;2.13;;
19635;SDS011;9965;50.774;7.188;2022-07-10T07:10:27;6.77;;;2.10;;
19635;SDS011;9965;50.774;7.188;2022-07-10T07:12:53;6.07;;;2.33;;
19635;SDS011;9965;50.774;7.188;2022-07-10T07:15:18;7.60;;;2.73;;
19635;SDS011;9965;50.774;7.188;2022-07-10T07:17:47;7.07;;;2.50;;
19635;SDS011;9965;50.774;7.188;2022-07-10T07:20:23;6.53;;;2.60;;
19635;SDS011;9965;50.774;7.188;2022-07-10T07:23:10;4.50;;;2.40;;
19635;SDS011;9965;50.774;7.188;2022-07-10T07:25:37;5.97;;;2.40;;
19635;SDS011;9965;50.774;7.188;2022-07-10T07:28:05;4.60;;;2.10;;
19635;SDS011;9965;50.774;7.188;2022-07-10T07:30:31;7.20;;;2.30;;
19635;SDS011;9965;50.774;7.188;2022-07-10T07:32:57;6.70;;;2.10;;
19635;SDS011;9965;50.774;7.188;2022-07-10T07:35:22;5.40;;;2.60;;
19635;SDS011;9965;50.774;7.188;2022-07-10T07:37:49;7.60;;;3.67;;
19635;SDS011;9965;50.774;7.188;2022-07-10T07:40:19;3.70;;;3.10;;
19635;SDS011;9965;50.774;7.188;2022-07-10T07:42:49;7.77;;;3.20;;
19635;SDS011;9965;50.774;7.188;2022-07-10T07:45:16;5.67;;;2.50;;
19635;SDS011;9965;50.774;7.188;2022-07-10T07:47:45;5.20;;;2.90;;
19635;SDS011;9965;50.774;7.188;2022-07-10T07:50:16;6.43;;;2.53;;
19635;SDS011;9965;50.774;7.188;2022-07-10T07:52:44;4.33;;;2.17;;
19635;SDS011;9965;50.774;7.188;2022-07-10T07:55:11;4.07;;;2.10;;
19635;SDS011;9965;50.774;7.188;2022-07-10T07:57:37;5.97;;;2.10;;
19635;SDS011;9965;50.774;7.188;2022-07-10T08:00:04;4.80;;;2.00;;
19635;SDS011;9965;50.774;7.188;2022-07-10T08:02:30;5.17;;;2.17;;
19635;SDS011;9965;50.774;7.188;2022-07-10T08:04:56;5.93;;;2.03;;
19635;SDS011;9965;50.774;7.188;2022-07-10T08:07:22;4.37;;;1.90;;
19635;SDS011;9965;50.774;7.188;2022-07-10T08:09:47;7.97;;;2.80;;
19635;SDS011;9965;50.774;7.188;2022-07-10T08:12:14;5.10;;;2.07;;
19635;SDS011;9965;50.774;7.188;2022-07-10T08:14:40;5.70;;;2.23;;
19635;SDS011;9965;50.774;7.188;2022-07-10T08:17:06;5.17;;;2.30;;
19635;SDS011;9965;50.774;7.188;2022-07-10T08:19:31;5.50;;;1.93;;
19635;SDS011;9965;50.774;7.188;2022-07-10T08:21:57;6.80;;;1.90;;
19635;SDS011;9965;50.774;7.188;2022-07-10T08:24:22;4.83;;;1.90;;
19635;SDS011;9965;50.774;7.188;2022-07-10T08:26:48;7.67;;;1.90;;
19635;SDS011;9965;50.774;7.188;2022-07-10T08:29:14;5.53;;;1.80;;
19635;SDS011;9965;50.774;7.188;2022-07-10T08:31:40;2.30;;;1.40;;
19635;SDS011;9965;50.774;7.188;2022-07-10T08:34:05;5.90;;;1.80;;
19635;SDS011;9965;50.774;7.188;2022-07-10T08:36:31;4.73;;;1.40;;
19635;SDS011;9965;50.774;7.188;2022-07-10T08:38:57;9.47;;;1.87;;
19635;SDS011;9965;50.774;7.188;2022-07-10T08:41:27;1.63;;;1.30;;
19635;SDS011;9965;50.774;7.188;2022-07-10T08:43:53;6.37;;;2.27;;
19635;SDS011;9965;50.774;7.188;2022-07-10T08:46:19;4.27;;;1.67;;
19635;SDS011;9965;50.774;7.188;2022-07-10T08:48:48;6.30;;;1.80;;
19635;SDS011;9965;50.774;7.188;2022-07-10T08:51:28;7.43;;;1.70;;
19635;SDS011;9965;50.774;7.188;2022-07-10T08:54:00;11.77;;;2.37;;
19635;SDS011;9965;50.774;7.188;2022-07-10T08:56:26;3.53;;;1.50;;
19635;SDS011;9965;50.774;7.188;2022-07-10T08:58:52;5.23;;;1.93;;
19635;SDS011;9965;50.774;7.188;2022-07-10T09:01:19;3.27;;;1.70;;
19635;SDS011;9965;50.774;7.188;2022-07-10T09:03:51;4.40;;;1.80;;
19635;SDS011;9965;50.774;7.188;2022-07-10T09:06:17;4.57;;;1.80;;
19635;SDS011;9965;50.774;7.188;2022-07-10T09:11:33;4.33;;;2.10;;
19635;SDS011;9965;50.774;7.188;2022-07-10T09:14:00;6.33;;;2.00;;
19635;SDS011;9965;50.774;7.188;2022-07-10T09:16:33;3.53;;;1.77;;
19635;SDS011;9965;50.774;7.188;2022-07-10T09:21:43;7.17;;;2.40;;
19635;SDS011;9965;50.774;7.188;2022-07-10T09:24:10;7.40;;;2.33;;
19635;SDS011;9965;50.774;7.188;2022-07-10T09:26:36;6.67;;;2.47;;
19635;SDS011;9965;50.774;7.188;2022-07-10T09:37:21;4.10;;;2.63;;
19635;SDS011;9965;50.774;7.188;2022-07-10T09:39:55;7.00;;;3.00;;
19635;SDS011;9965;50.774;7.188;2022-07-10T09:42:30;6.67;;;3.00;;
19635;SDS011;9965;50.774;7.188;2022-07-10T09:47:41;9.80;;;3.37;;
19635;SDS011;9965;50.774;7.188;2022-07-10T09:52:58;7.37;;;3.23;;
19635;SDS011;9965;50.774;7.188;2022-07-10T09:55:29;6.37;;;3.37;;
19635;SDS011;9965;50.774;7.188;2022-07-10T09:58:03;10.73;;;3.33;;
19635;SDS011;9965;50.774;7.188;2022-07-10T10:00:37;9.77;;;3.80;;
19635;SDS011;9965;50.774;7.188;2022-07-10T10:03:07;6.03;;;3.93;;
19635;SDS011;9965;50.774;7.188;2022-07-10T10:05:34;5.63;;;4.00;;
19635;SDS011;9965;50.774;7.188;2022-07-10T10:08:05;4.80;;;3.50;;
19635;SDS011;9965;50.774;7.188;2022-07-10T10:10:35;4.73;;;3.83;;
19635;SDS011;9965;50.774;7.188;2022-07-10T10:13:03;7.47;;;3.90;;
19635;SDS011;9965;50.774;7.188;2022-07-10T10:15:31;5.63;;;4.03;;
19635;SDS011;9965;50.774;7.188;2022-07-10T10:17:58;8.13;;;3.77;;
19635;SDS011;9965;50.774;7.188;2022-07-10T10:20:28;6.23;;;3.80;;
19635;SDS011;9965;50.774;7.188;2022-07-10T10:23:18;7.83;;;3.90;;
19635;SDS011;9965;50.774;7.188;2022-07-10T10:25:46;6.20;;;4.40;;
19635;SDS011;9965;50.774;7.188;2022-07-10T10:28:14;4.57;;;4.10;;
19635;SDS011;9965;50.774;7.188;2022-07-10T10:30:44;6.43;;;4.03;;
19635;SDS011;9965;50.774;7.188;2022-07-10T10:36:07;9.40;;;4.20;;
19635;SDS011;9965;50.774;7.188;2022-07-10T10:41:26;5.20;;;4.37;;
19635;SDS011;9965;50.774;7.188;2022-07-10T10:46:33;8.77;;;4.20;;
19635;SDS011;9965;50.774;7.188;2022-07-10T10:49:04;5.53;;;4.30;;
19635;SDS011;9965;50.774;7.188;2022-07-10T10:57:22;6.93;;;4.80;;
19635;SDS011;9965;50.774;7.188;2022-07-10T10:59:57;7.57;;;4.87;;
19635;SDS011;9965;50.774;7.188;2022-07-10T11:02:25;8.00;;;4.80;;
19635;SDS011;9965;50.774;7.188;2022-07-10T11:05:38;6.47;;;4.47;;
19635;SDS011;9965;50.774;7.188;2022-07-10T11:12:57;6.07;;;5.33;;
19635;SDS011;9965;50.774;7.188;2022-07-10T11:15:43;9.03;;;4.97;;
19635;SDS011;9965;50.774;7.188;2022-07-10T11:18:14;4.10;;;3.70;;
19635;SDS011;9965;50.774;7.188;2022-07-10T11:26:03;6.83;;;4.27;;
19635;SDS011;9965;50.774;7.188;2022-07-10T11:31:14;4.77;;;3.20;;
19635;SDS011;9965;50.774;7.188;2022-07-10T11:33:41;5.13;;;3.43;;
19635;SDS011;9965;50.774;7.188;2022-07-10T11:36:10;7.13;;;3.87;;
19635;SDS011;9965;50.774;7.188;2022-07-10T11:38:40;5.73;;;3.80;;
19635;SDS011;9965;50.774;7.188;2022-07-10T11:44:02;5.00;;;4.43;;
19635;SDS011;9965;50.774;7.188;2022-07-10T11:46:29;8.00;;;4.77;;
19635;SDS011;9965;50.774;7.188;2022-07-10T11:48:56;7.17;;;5.10;;
19635;SDS011;9965;50.774;7.188;2022-07-10T11:51:24;8.77;;;4.87;;
19635;SDS011;9965;50.774;7.188;2022-07-10T11:56:30;7.03;;;4.67;;
19635;SDS011;9965;50.774;7.188;2022-07-10T11:59:02;6.40;;;4.90;;
19635;SDS011;9965;50.774;7.188;2022-07-10T12:01:29;8.77;;;5.17;;
19635;SDS011;9965;50.774;7.188;2022-07-10T12:03:59;8.90;;;5.80;;
19635;SDS011;9965;50.774;7.188;2022-07-10T12:06:30;6.73;;;4.70;;
19635;SDS011;9965;50.774;7.188;2022-07-10T12:09:01;5.33;;;4.77;;
19635;SDS011;9965;50.774;7.188;2022-07-10T12:11:31;5.40;;;4.07;;
19635;SDS011;9965;50.774;7.188;2022-07-10T12:16:35;5.03;;;4.23;;
19635;SDS011;9965;50.774;7.188;2022-07-10T12:19:01;6.23;;;4.33;;
19635;SDS011;9965;50.774;7.188;2022-07-10T12:21:28;7.70;;;4.70;;
19635;SDS011;9965;50.774;7.188;2022-07-10T12:23:54;8.33;;;5.10;;
19635;SDS011;9965;50.774;7.188;2022-07-10T12:26:21;7.50;;;5.57;;
19635;SDS011;9965;50.774;7.188;2022-07-10T12:28:51;5.83;;;5.10;;
19635;SDS011;9965;50.774;7.188;2022-07-10T12:31:25;7.60;;;5.03;;
19635;SDS011;9965;50.774;7.188;2022-07-10T12:33:52;7.43;;;5.60;;
19635;SDS011;9965;50.774;7.188;2022-07-10T12:36:22;8.53;;;5.80;;
19635;SDS011;9965;50.774;7.188;2022-07-10T12:38:58;6.43;;;4.60;;
19635;SDS011;9965;50.774;7.188;2022-07-10T12:41:24;6.93;;;4.83;;
19635;SDS011;9965;50.774;7.188;2022-07-10T12:43:50;7.50;;;4.80;;
19635;SDS011;9965;50.774;7.188;2022-07-10T12:46:18;8.07;;;4.30;;
19635;SDS011;9965;50.774;7.188;2022-07-10T12:49:04;6.17;;;4.73;;
19635;SDS011;9965;50.774;7.188;2022-07-10T12:54:08;6.67;;;4.03;;
19635;SDS011;9965;50.774;7.188;2022-07-10T12:56:37;9.77;;;4.53;;
19635;SDS011;9965;50.774;7.188;2022-07-10T12:59:12;8.40;;;4.77;;
19635;SDS011;9965;50.774;7.188;2022-07-10T13:01:44;5.90;;;4.07;;
19635;SDS011;9965;50.774;7.188;2022-07-10T13:04:10;6.13;;;3.47;;
19635;SDS011;9965;50.774;7.188;2022-07-10T13:06:37;9.47;;;3.53;;
19635;SDS011;9965;50.774;7.188;2022-07-10T13:09:20;5.00;;;3.90;;
19635;SDS011;9965;50.774;7.188;2022-07-10T13:11:48;7.20;;;4.17;;
19635;SDS011;9965;50.774;7.188;2022-07-10T13:14:15;6.47;;;3.67;;
19635;SDS011;9965;50.774;7.188;2022-07-10T13:16:41;6.07;;;3.90;;
19635;SDS011;9965;50.774;7.188;2022-07-10T13:19:07;6.70;;;3.70;;
19635;SDS011;9965;50.774;7.188;2022-07-10T13:21:32;5.03;;;3.93;;
19635;SDS011;9965;50.774;7.188;2022-07-10T13:23:58;4.57;;;3.87;;
19635;SDS011;9965;50.774;7.188;2022-07-10T13:26:24;8.27;;;4.90;;
19635;SDS011;9965;50.774;7.188;2022-07-10T13:28:49;8.33;;;4.50;;
19635;SDS011;9965;50.774;7.188;2022-07-10T13:31:15;8.37;;;4.23;;
19635;SDS011;9965;50.774;7.188;2022-07-10T13:33:41;5.23;;;4.33;;
19635;SDS011;9965;50.774;7.188;2022-07-10T13:36:06;6.93;;;4.87;;
19635;SDS011;9965;50.774;7.188;2022-07-10T13:38:33;9.60;;;4.80;;
19635;SDS011;9965;50.774;7.188;2022-07-10T13:40:59;6.20;;;4.27;;
19635;SDS011;9965;50.774;7.188;2022-07-10T13:43:26;4.20;;;3.33;;
19635;SDS011;9965;50.774;7.188;2022-07-10T13:45:57;7.47;;;4.10;;
19635;SDS011;9965;50.774;7.188;2022-07-10T13:48:24;4.17;;;3.43;;
19635;SDS011;9965;50.774;7.188;2022-07-10T13:50:51;6.07;;;3.17;;
19635;SDS011;9965;50.774;7.188;2022-07-10T13:53:17;4.63;;;3.10;;
19635;SDS011;9965;50.774;7.188;2022-07-10T13:55:43;3.13;;;2.80;;
19635;SDS011;9965;50.774;7.188;2022-07-10T13:58:10;5.33;;;2.77;;
19635;SDS011;9965;50.774;7.188;2022-07-10T14:00:37;5.50;;;3.00;;
19635;SDS011;9965;50.774;7.188;2022-07-10T14:03:03;5.13;;;2.63;;
19635;SDS011;9965;50.774;7.188;2022-07-10T14:05:30;4.57;;;2.90;;
19635;SDS011;9965;50.774;7.188;2022-07-10T14:07:57;2.90;;;2.07;;
19635;SDS011;9965;50.774;7.188;2022-07-10T14:10:23;3.03;;;2.43;;
19635;SDS011;9965;50.774;7.188;2022-07-10T14:12:49;4.87;;;2.70;;
19635;SDS011;9965;50.774;7.188;2022-07-10T14:15:17;6.37;;;2.70;;
19635;SDS011;9965;50.774;7.188;2022-07-10T14:17:43;4.57;;;2.60;;
19635;SDS011;9965;50.774;7.188;2022-07-10T14:20:09;3.20;;;2.07;;
19635;SDS011;9965;50.774;7.188;2022-07-10T14:22:36;4.60;;;2.53;;
19635;SDS011;9965;50.774;7.188;2022-07-10T14:25:02;4.27;;;2.27;;
19635;SDS011;9965;50.774;7.188;2022-07-10T14:27:29;5.23;;;2.63;;
19635;SDS011;9965;50.774;7.188;2022-07-10T14:29:56;5.60;;;2.93;;
19635;SDS011;9965;50.774;7.188;2022-07-10T14:32:23;4.07;;;2.23;;
19635;SDS011;9965;50.774;7.188;2022-07-10T14:34:48;2.50;;;2.30;;
19635;SDS011;9965;50.774;7.188;2022-07-10T14:37:14;4.43;;;2.47;;
19635;SDS011;9965;50.774;7.188;2022-07-10T14:39:40;3.23;;;2.20;;
19635;SDS011;9965;50.774;7.188;2022-07-10T14:42:06;4.57;;;2.40;;
19635;SDS011;9965;50.774;7.188;2022-07-10T14:44:34;3.87;;;2.23;;
19635;SDS011;9965;50.774;7.188;2022-07-10T14:47:00;4.23;;;2.30;;
19635;SDS011;9965;50.774;7.188;2022-07-10T14:49:26;3.27;;;2.30;;
19635;SDS011;9965;50.774;7.188;2022-07-10T14:51:51;4.00;;;2.47;;
19635;SDS011;9965;50.774;7.188;2022-07-10T14:54:17;3.27;;;2.30;;
19635;SDS011;9965;50.774;7.188;2022-07-10T14:56:43;5.20;;;2.63;;
19635;SDS011;9965;50.774;7.188;2022-07-10T14:59:09;2.80;;;2.40;;
19635;SDS011;9965;50.774;7.188;2022-07-10T15:01:35;3.10;;;2.43;;
19635;SDS011;9965;50.774;7.188;2022-07-10T15:04:01;5.00;;;3.10;;
19635;SDS011;9965;50.774;7.188;2022-07-10T15:06:27;3.53;;;2.93;;
19635;SDS011;9965;50.774;7.188;2022-07-10T15:08:52;4.53;;;2.90;;
19635;SDS011;9965;50.774;7.188;2022-07-10T15:11:18;2.53;;;2.33;;
19635;SDS011;9965;50.774;7.188;2022-07-10T15:13:50;3.60;;;2.40;;
19635;SDS011;9965;50.774;7.188;2022-07-10T15:16:18;5.57;;;2.70;;
19635;SDS011;9965;50.774;7.188;2022-07-10T15:18:44;3.17;;;2.50;;
19635;SDS011;9965;50.774;7.188;2022-07-10T15:21:10;2.70;;;2.37;;
19635;SDS011;9965;50.774;7.188;2022-07-10T15:23:36;4.13;;;2.73;;
19635;SDS011;9965;50.774;7.188;2022-07-10T15:26:02;7.07;;;3.00;;
19635;SDS011;9965;50.774;7.188;2022-07-10T15:28:29;5.60;;;2.67;;
19635;SDS011;9965;50.774;7.188;2022-07-10T15:30:55;4.30;;;2.70;;
19635;SDS011;9965;50.774;7.188;2022-07-10T15:33:21;6.83;;;2.87;;
19635;SDS011;9965;50.774;7.188;2022-07-10T15:35:47;3.33;;;2.30;;
19635;SDS011;9965;50.774;7.188;2022-07-10T15:38:12;5.40;;;2.97;;
19635;SDS011;9965;50.774;7.188;2022-07-10T15:40:38;6.43;;;2.83;;
19635;SDS011;9965;50.774;7.188;2022-07-10T15:43:04;4.37;;;3.10;;
19635;SDS011;9965;50.774;7.188;2022-07-10T15:45:30;6.30;;;2.83;;
19635;SDS011;9965;50.774;7.188;2022-07-10T15:47:56;3.70;;;2.87;;
19635;SDS011;9965;50.774;7.188;2022-07-10T15:50:22;5.07;;;3.20;;
19635;SDS011;9965;50.774;7.188;2022-07-10T15:52:48;5.67;;;3.33;;
19635;SDS011;9965;50.774;7.188;2022-07-10T15:55:13;6.00;;;3.67;;
19635;SDS011;9965;50.774;7.188;2022-07-10T15:57:39;5.27;;;3.27;;